Aérodrome :
LOGIN :

S'inscrire | Disclaimer

   EN    FR    IT 

 










Légende :    VFR   VFR Marginal   IFR   IFR Intensif   IFR Très Intensif
Visi : 
Plafond : 
>= 8 km
>= 3000ft
5 à 8 km
1000 à 3000 ft
1500m à 5 km
500 à 1000 ft
800 à 1500m
200 à 500 ft
< 800m
< 200 ft
Symboles :   Orages  Brouillard  Fortes neiges  Fortes précipitations  Vent > 20 kt
SIGMETs :   Divers  Orages  Givrage  Turbulence  Onde Orograph.  Cendres Volcan.






- Altitude de l'aérodrome : 526 ft
- Code IATA : LTN


EGGW - London Luton

DERNIER METAR :
  • 152020Z AUTO 21012KT 5000 -RA SCT013/// BKN022/// BKN026/// //////CB 06/05 Q0998 RERA

METARs EXPIRÉS :
  • 151950Z AUTO 19010KT 9999 -RA SCT020/// SCT030/// BKN045/// //////TCU 06/05 Q0997
  • 151920Z AUTO 19007KT 150V220 9999 NCD 06/04 Q0997
  • 151850Z AUTO 19008KT 9999 FEW033 06/04 Q0997
  • 151820Z 20009KT CAVOK 06/04 Q0997
  • 151750Z AUTO 20010KT 9999 FEW029 06/03 Q0997

TAF TAF EGGW
Valide du 15 à 18h jusqu'au 16 à 18h UTC


151659Z 1518/1618 21010KT 9999 SCT040
PROB30
TEMPO 1518/1601 21015G25KT 6000 SHRA BKN009
BECMG 1615/1618 15004KT
PROB30 1616/1618 7000
ATIS : +44 1582 395 204



MET'MAP, la Météo Aéronautique d'un coup d'oeil ! - Copyright ORBIFLY Décembre 2007 - Disclaimer

ORBIFLY MET'MAP TEAM :

Programmation & Développement : Alexandra Zaïnal
Sur une idée originale de : Baudouin d'Aumeries
Assistance à la programmation : Marc-Olivier Méhu
Soutien technique & logistique : Manuel Goepfert

Contact : metmap@orbifly.com




SOURCES & CREDITS :

   NOAA